sensor_id;sensor_type;location;lat;lon;timestamp;temperature;humidity
9057;DHT22;4563;54.756;9.400;2023-09-07T00:01:29;22.80;70.70
9057;DHT22;4563;54.756;9.400;2023-09-07T00:03:56;22.70;70.60
9057;DHT22;4563;54.756;9.400;2023-09-07T00:06:23;22.70;70.60
9057;DHT22;4563;54.756;9.400;2023-09-07T00:08:50;22.70;70.70
9057;DHT22;4563;54.756;9.400;2023-09-07T00:11:17;22.70;70.80
9057;DHT22;4563;54.756;9.400;2023-09-07T00:13:45;22.70;70.70
9057;DHT22;4563;54.756;9.400;2023-09-07T00:16:12;22.70;70.80
9057;DHT22;4563;54.756;9.400;2023-09-07T00:18:38;22.60;70.80
9057;DHT22;4563;54.756;9.400;2023-09-07T00:21:05;22.70;70.90
9057;DHT22;4563;54.756;9.400;2023-09-07T00:23:32;22.60;70.80
9057;DHT22;4563;54.756;9.400;2023-09-07T00:25:59;22.60;70.80
9057;DHT22;4563;54.756;9.400;2023-09-07T00:28:26;22.60;70.80
9057;DHT22;4563;54.756;9.400;2023-09-07T00:30:54;22.60;70.90
9057;DHT22;4563;54.756;9.400;2023-09-07T00:33:20;22.60;70.90
9057;DHT22;4563;54.756;9.400;2023-09-07T00:35:47;22.60;70.90
9057;DHT22;4563;54.756;9.400;2023-09-07T00:38:14;22.50;71.50
9057;DHT22;4563;54.756;9.400;2023-09-07T00:40:43;22.50;70.90
9057;DHT22;4563;54.756;9.400;2023-09-07T00:43:10;22.50;71.00
9057;DHT22;4563;54.756;9.400;2023-09-07T00:45:37;22.50;71.00
9057;DHT22;4563;54.756;9.400;2023-09-07T00:48:07;22.40;71.00
9057;DHT22;4563;54.756;9.400;2023-09-07T00:50:34;22.40;71.00
9057;DHT22;4563;54.756;9.400;2023-09-07T00:53:01;22.40;71.00
9057;DHT22;4563;54.756;9.400;2023-09-07T00:55:29;22.40;71.10
9057;DHT22;4563;54.756;9.400;2023-09-07T00:57:58;22.40;71.00
9057;DHT22;4563;54.756;9.400;2023-09-07T01:00:25;22.40;71.00
9057;DHT22;4563;54.756;9.400;2023-09-07T01:02:51;22.40;71.10
9057;DHT22;4563;54.756;9.400;2023-09-07T01:05:23;22.40;71.20
9057;DHT22;4563;54.756;9.400;2023-09-07T01:07:53;22.30;71.10
9057;DHT22;4563;54.756;9.400;2023-09-07T01:10:20;22.30;71.10
9057;DHT22;4563;54.756;9.400;2023-09-07T01:12:49;22.30;71.20
9057;DHT22;4563;54.756;9.400;2023-09-07T01:15:16;22.30;71.20
9057;DHT22;4563;54.756;9.400;2023-09-07T01:17:43;22.20;71.20
9057;DHT22;4563;54.756;9.400;2023-09-07T01:20:13;22.20;71.30
9057;DHT22;4563;54.756;9.400;2023-09-07T01:22:43;22.20;71.30
9057;DHT22;4563;54.756;9.400;2023-09-07T01:25:11;22.20;71.40
9057;DHT22;4563;54.756;9.400;2023-09-07T01:27:38;22.20;71.30
9057;DHT22;4563;54.756;9.400;2023-09-07T01:30:06;22.30;71.40
9057;DHT22;4563;54.756;9.400;2023-09-07T01:32:33;22.20;71.30
9057;DHT22;4563;54.756;9.400;2023-09-07T01:35:01;22.20;71.40
9057;DHT22;4563;54.756;9.400;2023-09-07T01:37:30;22.20;71.40
9057;DHT22;4563;54.756;9.400;2023-09-07T01:39:58;22.20;71.40
9057;DHT22;4563;54.756;9.400;2023-09-07T01:42:26;22.10;71.30
9057;DHT22;4563;54.756;9.400;2023-09-07T01:44:53;22.10;71.30
9057;DHT22;4563;54.756;9.400;2023-09-07T01:47:19;22.10;71.30
9057;DHT22;4563;54.756;9.400;2023-09-07T01:49:46;22.10;71.30
9057;DHT22;4563;54.756;9.400;2023-09-07T01:52:13;22.10;71.40
9057;DHT22;4563;54.756;9.400;2023-09-07T01:54:40;22.10;71.40
9057;DHT22;4563;54.756;9.400;2023-09-07T01:57:08;22.10;71.40
9057;DHT22;4563;54.756;9.400;2023-09-07T01:59:35;22.10;71.40
9057;DHT22;4563;54.756;9.400;2023-09-07T02:02:02;22.10;71.40
9057;DHT22;4563;54.756;9.400;2023-09-07T02:04:28;22.00;71.40
9057;DHT22;4563;54.756;9.400;2023-09-07T02:06:55;22.00;71.50
9057;DHT22;4563;54.756;9.400;2023-09-07T02:09:22;22.00;71.50
9057;DHT22;4563;54.756;9.400;2023-09-07T02:11:49;22.00;71.60
9057;DHT22;4563;54.756;9.400;2023-09-07T02:14:17;22.00;71.60
9057;DHT22;4563;54.756;9.400;2023-09-07T02:16:44;22.00;71.70
9057;DHT22;4563;54.756;9.400;2023-09-07T02:19:10;21.90;71.60
9057;DHT22;4563;54.756;9.400;2023-09-07T02:21:37;21.90;71.90
9057;DHT22;4563;54.756;9.400;2023-09-07T02:24:05;21.90;71.60
9057;DHT22;4563;54.756;9.400;2023-09-07T02:26:32;21.90;71.70
9057;DHT22;4563;54.756;9.400;2023-09-07T02:29:00;21.90;71.80
9057;DHT22;4563;54.756;9.400;2023-09-07T02:31:32;21.90;71.80
9057;DHT22;4563;54.756;9.400;2023-09-07T02:33:59;21.80;71.80
9057;DHT22;4563;54.756;9.400;2023-09-07T02:36:25;21.80;71.80
9057;DHT22;4563;54.756;9.400;2023-09-07T02:38:52;21.80;71.80
9057;DHT22;4563;54.756;9.400;2023-09-07T02:41:19;21.80;71.80
9057;DHT22;4563;54.756;9.400;2023-09-07T02:43:46;21.80;71.90
9057;DHT22;4563;54.756;9.400;2023-09-07T02:46:12;21.80;71.90
9057;DHT22;4563;54.756;9.400;2023-09-07T02:48:40;21.70;71.90
9057;DHT22;4563;54.756;9.400;2023-09-07T02:51:06;21.70;71.90
9057;DHT22;4563;54.756;9.400;2023-09-07T02:53:33;21.70;72.00
9057;DHT22;4563;54.756;9.400;2023-09-07T02:56:00;21.70;72.00
9057;DHT22;4563;54.756;9.400;2023-09-07T02:58:30;21.80;72.20
9057;DHT22;4563;54.756;9.400;2023-09-07T03:00:56;21.70;72.20
9057;DHT22;4563;54.756;9.400;2023-09-07T03:03:23;21.70;72.20
9057;DHT22;4563;54.756;9.400;2023-09-07T03:05:51;21.70;72.30
9057;DHT22;4563;54.756;9.400;2023-09-07T03:08:18;21.70;72.40
9057;DHT22;4563;54.756;9.400;2023-09-07T03:10:45;21.70;72.50
9057;DHT22;4563;54.756;9.400;2023-09-07T03:13:12;21.60;72.40
9057;DHT22;4563;54.756;9.400;2023-09-07T03:15:38;21.60;72.40
9057;DHT22;4563;54.756;9.400;2023-09-07T03:18:05;21.60;72.40
9057;DHT22;4563;54.756;9.400;2023-09-07T03:20:33;21.60;72.40
9057;DHT22;4563;54.756;9.400;2023-09-07T03:23:02;21.60;72.50
9057;DHT22;4563;54.756;9.400;2023-09-07T03:25:30;21.60;72.70
9057;DHT22;4563;54.756;9.400;2023-09-07T03:27:57;21.60;72.80
9057;DHT22;4563;54.756;9.400;2023-09-07T03:30:23;21.60;73.00
9057;DHT22;4563;54.756;9.400;2023-09-07T03:32:50;21.60;72.90
9057;DHT22;4563;54.756;9.400;2023-09-07T03:35:19;21.50;72.90
9057;DHT22;4563;54.756;9.400;2023-09-07T03:37:46;21.50;73.00
9057;DHT22;4563;54.756;9.400;2023-09-07T03:40:14;21.50;73.00
9057;DHT22;4563;54.756;9.400;2023-09-07T03:42:41;21.50;73.10
9057;DHT22;4563;54.756;9.400;2023-09-07T03:45:09;21.50;73.20
9057;DHT22;4563;54.756;9.400;2023-09-07T03:47:37;21.50;73.20
9057;DHT22;4563;54.756;9.400;2023-09-07T03:50:05;21.50;73.20
9057;DHT22;4563;54.756;9.400;2023-09-07T03:52:32;21.50;73.30
9057;DHT22;4563;54.756;9.400;2023-09-07T03:55:00;21.50;73.40
9057;DHT22;4563;54.756;9.400;2023-09-07T03:57:28;21.50;73.40
9057;DHT22;4563;54.756;9.400;2023-09-07T03:59:56;21.50;73.50
9057;DHT22;4563;54.756;9.400;2023-09-07T04:02:23;21.40;73.40
9057;DHT22;4563;54.756;9.400;2023-09-07T04:04:50;21.40;73.40
9057;DHT22;4563;54.756;9.400;2023-09-07T04:07:17;21.40;73.50
9057;DHT22;4563;54.756;9.400;2023-09-07T04:09:45;21.40;73.60
9057;DHT22;4563;54.756;9.400;2023-09-07T04:12:12;21.40;73.70
9057;DHT22;4563;54.756;9.400;2023-09-07T04:14:40;21.40;73.70
9057;DHT22;4563;54.756;9.400;2023-09-07T04:17:08;21.40;73.80
9057;DHT22;4563;54.756;9.400;2023-09-07T04:19:35;21.40;73.90
9057;DHT22;4563;54.756;9.400;2023-09-07T04:22:01;21.40;73.90
9057;DHT22;4563;54.756;9.400;2023-09-07T04:24:28;21.40;74.00
9057;DHT22;4563;54.756;9.400;2023-09-07T04:26:58;21.40;74.10
9057;DHT22;4563;54.756;9.400;2023-09-07T04:29:26;21.40;74.20
9057;DHT22;4563;54.756;9.400;2023-09-07T04:31:54;21.30;74.20
9057;DHT22;4563;54.756;9.400;2023-09-07T04:34:21;21.30;74.30
9057;DHT22;4563;54.756;9.400;2023-09-07T04:36:48;21.30;74.30
9057;DHT22;4563;54.756;9.400;2023-09-07T04:39:15;21.30;74.40
9057;DHT22;4563;54.756;9.400;2023-09-07T04:41:42;21.30;74.60
9057;DHT22;4563;54.756;9.400;2023-09-07T04:44:08;21.30;74.70
9057;DHT22;4563;54.756;9.400;2023-09-07T04:46:35;21.20;74.70
9057;DHT22;4563;54.756;9.400;2023-09-07T04:49:03;21.30;74.90
9057;DHT22;4563;54.756;9.400;2023-09-07T04:51:30;21.30;75.00
9057;DHT22;4563;54.756;9.400;2023-09-07T04:53:57;21.30;75.10
9057;DHT22;4563;54.756;9.400;2023-09-07T04:56:24;21.30;75.30
9057;DHT22;4563;54.756;9.400;2023-09-07T04:58:53;21.30;75.50
9057;DHT22;4563;54.756;9.400;2023-09-07T05:01:20;21.30;75.70
9057;DHT22;4563;54.756;9.400;2023-09-07T05:03:47;21.30;75.80
9057;DHT22;4563;54.756;9.400;2023-09-07T05:06:15;21.30;76.00
9057;DHT22;4563;54.756;9.400;2023-09-07T05:08:42;21.20;76.10
9057;DHT22;4563;54.756;9.400;2023-09-07T05:11:08;21.30;76.30
9057;DHT22;4563;54.756;9.400;2023-09-07T05:13:35;21.30;76.50
9057;DHT22;4563;54.756;9.400;2023-09-07T05:16:02;21.30;76.60
9057;DHT22;4563;54.756;9.400;2023-09-07T05:18:30;21.30;76.90
9057;DHT22;4563;54.756;9.400;2023-09-07T05:20:57;21.30;76.90
9057;DHT22;4563;54.756;9.400;2023-09-07T05:23:25;21.30;77.10
9057;DHT22;4563;54.756;9.400;2023-09-07T05:25:53;21.40;77.50
9057;DHT22;4563;54.756;9.400;2023-09-07T05:28:21;21.30;77.40
9057;DHT22;4563;54.756;9.400;2023-09-07T05:30:48;21.40;77.50
9057;DHT22;4563;54.756;9.400;2023-09-07T05:33:16;21.30;77.40
9057;DHT22;4563;54.756;9.400;2023-09-07T05:35:44;21.40;77.70
9057;DHT22;4563;54.756;9.400;2023-09-07T05:38:11;21.40;77.70
9057;DHT22;4563;54.756;9.400;2023-09-07T05:40:41;21.40;77.70
9057;DHT22;4563;54.756;9.400;2023-09-07T05:43:10;21.40;77.90
9057;DHT22;4563;54.756;9.400;2023-09-07T05:45:40;21.40;78.70
9057;DHT22;4563;54.756;9.400;2023-09-07T05:48:08;21.40;78.70
9057;DHT22;4563;54.756;9.400;2023-09-07T05:50:36;21.50;78.10
9057;DHT22;4563;54.756;9.400;2023-09-07T05:53:03;21.50;78.10
9057;DHT22;4563;54.756;9.400;2023-09-07T05:55:30;21.50;78.20
9057;DHT22;4563;54.756;9.400;2023-09-07T05:57:59;21.50;78.30
9057;DHT22;4563;54.756;9.400;2023-09-07T06:00:26;21.50;78.30
9057;DHT22;4563;54.756;9.400;2023-09-07T06:02:53;21.50;78.30
9057;DHT22;4563;54.756;9.400;2023-09-07T06:05:19;21.50;78.30
9057;DHT22;4563;54.756;9.400;2023-09-07T06:07:46;21.50;78.40
9057;DHT22;4563;54.756;9.400;2023-09-07T06:10:13;21.60;78.50
9057;DHT22;4563;54.756;9.400;2023-09-07T06:12:40;21.60;78.50
9057;DHT22;4563;54.756;9.400;2023-09-07T06:15:08;21.60;78.50
9057;DHT22;4563;54.756;9.400;2023-09-07T06:17:36;21.60;78.60
9057;DHT22;4563;54.756;9.400;2023-09-07T06:20:03;21.60;78.60
9057;DHT22;4563;54.756;9.400;2023-09-07T06:22:31;21.70;78.70
9057;DHT22;4563;54.756;9.400;2023-09-07T06:24:58;21.70;78.70
9057;DHT22;4563;54.756;9.400;2023-09-07T06:27:24;21.70;78.80
9057;DHT22;4563;54.756;9.400;2023-09-07T06:29:51;21.70;78.80
9057;DHT22;4563;54.756;9.400;2023-09-07T06:32:20;21.70;78.80
9057;DHT22;4563;54.756;9.400;2023-09-07T06:34:46;21.70;78.80
9057;DHT22;4563;54.756;9.400;2023-09-07T06:37:13;21.70;78.90
9057;DHT22;4563;54.756;9.400;2023-09-07T06:39:40;21.70;78.80
9057;DHT22;4563;54.756;9.400;2023-09-07T06:42:09;21.70;78.80
9057;DHT22;4563;54.756;9.400;2023-09-07T06:44:36;21.70;79.60
9057;DHT22;4563;54.756;9.400;2023-09-07T06:47:03;21.80;78.90
9057;DHT22;4563;54.756;9.400;2023-09-07T06:49:31;21.80;78.90
9057;DHT22;4563;54.756;9.400;2023-09-07T06:51:58;21.80;78.90
9057;DHT22;4563;54.756;9.400;2023-09-07T06:54:28;21.80;79.00
9057;DHT22;4563;54.756;9.400;2023-09-07T06:56:55;21.80;79.00
9057;DHT22;4563;54.756;9.400;2023-09-07T06:59:22;21.90;79.00
9057;DHT22;4563;54.756;9.400;2023-09-07T07:01:48;21.90;79.00
9057;DHT22;4563;54.756;9.400;2023-09-07T07:04:15;21.90;79.10
9057;DHT22;4563;54.756;9.400;2023-09-07T07:06:43;21.90;79.00
9057;DHT22;4563;54.756;9.400;2023-09-07T07:09:10;21.90;79.00
9057;DHT22;4563;54.756;9.400;2023-09-07T07:11:37;21.90;79.10
9057;DHT22;4563;54.756;9.400;2023-09-07T07:14:04;22.00;79.20
9057;DHT22;4563;54.756;9.400;2023-09-07T07:16:31;22.00;79.10
9057;DHT22;4563;54.756;9.400;2023-09-07T07:18:58;22.00;79.70
9057;DHT22;4563;54.756;9.400;2023-09-07T07:21:25;22.00;79.00
9057;DHT22;4563;54.756;9.400;2023-09-07T07:23:53;22.00;79.00
9057;DHT22;4563;54.756;9.400;2023-09-07T07:26:20;22.10;79.10
9057;DHT22;4563;54.756;9.400;2023-09-07T07:28:46;22.10;79.00
9057;DHT22;4563;54.756;9.400;2023-09-07T07:31:13;22.10;79.00
9057;DHT22;4563;54.756;9.400;2023-09-07T07:33:40;22.20;79.00
9057;DHT22;4563;54.756;9.400;2023-09-07T07:36:07;22.20;79.00
9057;DHT22;4563;54.756;9.400;2023-09-07T07:38:34;22.20;78.80
9057;DHT22;4563;54.756;9.400;2023-09-07T07:41:02;22.30;78.90
9057;DHT22;4563;54.756;9.400;2023-09-07T07:43:29;22.30;78.80
9057;DHT22;4563;54.756;9.400;2023-09-07T07:45:56;22.30;78.80
9057;DHT22;4563;54.756;9.400;2023-09-07T07:48:23;22.40;78.90
9057;DHT22;4563;54.756;9.400;2023-09-07T07:50:49;22.40;78.90
9057;DHT22;4563;54.756;9.400;2023-09-07T07:53:16;22.40;78.90
9057;DHT22;4563;54.756;9.400;2023-09-07T07:55:43;22.50;78.80
9057;DHT22;4563;54.756;9.400;2023-09-07T07:58:11;22.50;78.60
9057;DHT22;4563;54.756;9.400;2023-09-07T08:00:38;22.50;78.50
9057;DHT22;4563;54.756;9.400;2023-09-07T08:03:07;22.60;78.50
9057;DHT22;4563;54.756;9.400;2023-09-07T08:05:35;22.60;78.30
9057;DHT22;4563;54.756;9.400;2023-09-07T08:08:05;22.70;78.40
9057;DHT22;4563;54.756;9.400;2023-09-07T08:10:33;22.70;78.20
9057;DHT22;4563;54.756;9.400;2023-09-07T08:13:01;22.80;78.20
9057;DHT22;4563;54.756;9.400;2023-09-07T08:15:31;22.80;78.00
9057;DHT22;4563;54.756;9.400;2023-09-07T08:17:58;22.90;78.00
9057;DHT22;4563;54.756;9.400;2023-09-07T08:20:25;22.90;77.90
9057;DHT22;4563;54.756;9.400;2023-09-07T08:22:51;23.00;77.80
9057;DHT22;4563;54.756;9.400;2023-09-07T08:25:19;23.00;77.70
9057;DHT22;4563;54.756;9.400;2023-09-07T08:27:46;23.10;77.70
9057;DHT22;4563;54.756;9.400;2023-09-07T08:30:14;23.10;77.60
9057;DHT22;4563;54.756;9.400;2023-09-07T08:32:44;23.10;77.50
9057;DHT22;4563;54.756;9.400;2023-09-07T08:35:11;23.20;77.50
9057;DHT22;4563;54.756;9.400;2023-09-07T08:37:39;23.30;77.60
9057;DHT22;4563;54.756;9.400;2023-09-07T08:40:06;23.30;77.50
9057;DHT22;4563;54.756;9.400;2023-09-07T08:42:35;23.40;77.40
9057;DHT22;4563;54.756;9.400;2023-09-07T08:45:03;23.40;77.10
9057;DHT22;4563;54.756;9.400;2023-09-07T08:47:33;23.50;77.10
9057;DHT22;4563;54.756;9.400;2023-09-07T08:50:02;23.50;76.80
9057;DHT22;4563;54.756;9.400;2023-09-07T08:52:32;23.60;76.60
9057;DHT22;4563;54.756;9.400;2023-09-07T08:54:58;23.60;76.50
9057;DHT22;4563;54.756;9.400;2023-09-07T08:57:27;23.70;76.60
9057;DHT22;4563;54.756;9.400;2023-09-07T08:59:56;23.70;76.40
9057;DHT22;4563;54.756;9.400;2023-09-07T09:02:23;23.80;76.10
9057;DHT22;4563;54.756;9.400;2023-09-07T09:04:50;23.80;75.80
9057;DHT22;4563;54.756;9.400;2023-09-07T09:07:19;23.90;76.00
9057;DHT22;4563;54.756;9.400;2023-09-07T09:09:46;24.00;76.10
9057;DHT22;4563;54.756;9.400;2023-09-07T09:12:13;24.00;76.00
9057;DHT22;4563;54.756;9.400;2023-09-07T09:14:42;24.10;75.90
9057;DHT22;4563;54.756;9.400;2023-09-07T09:17:11;24.20;76.10
9057;DHT22;4563;54.756;9.400;2023-09-07T09:19:38;24.20;76.00
9057;DHT22;4563;54.756;9.400;2023-09-07T09:22:06;24.30;75.70
9057;DHT22;4563;54.756;9.400;2023-09-07T09:24:34;24.40;75.60
9057;DHT22;4563;54.756;9.400;2023-09-07T09:27:01;24.50;75.50
9057;DHT22;4563;54.756;9.400;2023-09-07T09:29:31;24.50;75.20
9057;DHT22;4563;54.756;9.400;2023-09-07T09:32:00;24.60;75.00
9057;DHT22;4563;54.756;9.400;2023-09-07T09:34:32;24.70;74.80
9057;DHT22;4563;54.756;9.400;2023-09-07T09:36:59;24.80;74.90
9057;DHT22;4563;54.756;9.400;2023-09-07T09:39:26;24.90;74.80
9057;DHT22;4563;54.756;9.400;2023-09-07T09:41:54;25.00;74.80
9057;DHT22;4563;54.756;9.400;2023-09-07T09:44:23;25.10;74.60
9057;DHT22;4563;54.756;9.400;2023-09-07T09:46:51;25.20;74.40
9057;DHT22;4563;54.756;9.400;2023-09-07T09:49:21;25.30;74.20
9057;DHT22;4563;54.756;9.400;2023-09-07T09:51:48;25.50;74.20
9057;DHT22;4563;54.756;9.400;2023-09-07T09:54:16;25.60;73.80
9057;DHT22;4563;54.756;9.400;2023-09-07T09:56:43;25.70;73.30
9057;DHT22;4563;54.756;9.400;2023-09-07T09:59:12;25.90;73.10
9057;DHT22;4563;54.756;9.400;2023-09-07T10:01:43;26.00;72.80
9057;DHT22;4563;54.756;9.400;2023-09-07T10:04:12;26.30;73.00
9057;DHT22;4563;54.756;9.400;2023-09-07T10:06:49;26.40;72.40
9057;DHT22;4563;54.756;9.400;2023-09-07T10:09:16;26.60;71.90
9057;DHT22;4563;54.756;9.400;2023-09-07T10:11:51;26.80;71.80
9057;DHT22;4563;54.756;9.400;2023-09-07T10:14:19;26.90;73.50
9057;DHT22;4563;54.756;9.400;2023-09-07T10:16:47;27.10;71.30
9057;DHT22;4563;54.756;9.400;2023-09-07T10:19:16;27.30;71.00
9057;DHT22;4563;54.756;9.400;2023-09-07T10:21:43;27.50;70.80
9057;DHT22;4563;54.756;9.400;2023-09-07T10:24:10;27.70;71.00
9057;DHT22;4563;54.756;9.400;2023-09-07T10:26:37;27.90;70.00
9057;DHT22;4563;54.756;9.400;2023-09-07T10:29:04;28.10;69.30
9057;DHT22;4563;54.756;9.400;2023-09-07T10:31:32;28.30;69.10
9057;DHT22;4563;54.756;9.400;2023-09-07T10:34:08;28.50;69.20
9057;DHT22;4563;54.756;9.400;2023-09-07T10:36:37;28.80;73.10
9057;DHT22;4563;54.756;9.400;2023-09-07T10:39:04;28.90;68.30
9057;DHT22;4563;54.756;9.400;2023-09-07T10:41:40;29.20;67.60
9057;DHT22;4563;54.756;9.400;2023-09-07T10:44:07;29.40;71.10
9057;DHT22;4563;54.756;9.400;2023-09-07T10:46:38;29.70;66.10
9057;DHT22;4563;54.756;9.400;2023-09-07T10:49:07;29.90;65.90
9057;DHT22;4563;54.756;9.400;2023-09-07T10:51:40;30.10;65.40
9057;DHT22;4563;54.756;9.400;2023-09-07T10:54:13;30.30;67.50
9057;DHT22;4563;54.756;9.400;2023-09-07T10:56:42;30.50;67.10
9057;DHT22;4563;54.756;9.400;2023-09-07T10:59:09;30.70;63.40
9057;DHT22;4563;54.756;9.400;2023-09-07T11:01:37;30.90;62.90
9057;DHT22;4563;54.756;9.400;2023-09-07T11:04:04;31.00;62.50
9057;DHT22;4563;54.756;9.400;2023-09-07T11:06:34;31.20;61.50
9057;DHT22;4563;54.756;9.400;2023-09-07T11:09:04;31.40;60.90
9057;DHT22;4563;54.756;9.400;2023-09-07T11:11:34;31.60;62.50
9057;DHT22;4563;54.756;9.400;2023-09-07T11:14:03;31.70;60.00
9057;DHT22;4563;54.756;9.400;2023-09-07T11:16:33;32.00;59.70
9057;DHT22;4563;54.756;9.400;2023-09-07T11:19:07;32.10;59.80
9057;DHT22;4563;54.756;9.400;2023-09-07T11:21:34;32.30;62.40
9057;DHT22;4563;54.756;9.400;2023-09-07T11:24:02;32.40;58.20
9057;DHT22;4563;54.756;9.400;2023-09-07T11:26:39;32.60;57.80
9057;DHT22;4563;54.756;9.400;2023-09-07T11:29:06;32.70;57.30
9057;DHT22;4563;54.756;9.400;2023-09-07T11:31:33;32.90;57.10
9057;DHT22;4563;54.756;9.400;2023-09-07T11:34:00;33.10;56.60
9057;DHT22;4563;54.756;9.400;2023-09-07T11:36:28;33.20;56.00
9057;DHT22;4563;54.756;9.400;2023-09-07T11:38:55;33.40;56.10
9057;DHT22;4563;54.756;9.400;2023-09-07T11:41:21;33.50;55.20
9057;DHT22;4563;54.756;9.400;2023-09-07T11:43:48;33.60;54.60
9057;DHT22;4563;54.756;9.400;2023-09-07T11:46:15;33.80;54.30
9057;DHT22;4563;54.756;9.400;2023-09-07T11:48:42;33.90;54.10
9057;DHT22;4563;54.756;9.400;2023-09-07T11:51:08;34.10;53.80
9057;DHT22;4563;54.756;9.400;2023-09-07T11:53:37;34.20;53.60
9057;DHT22;4563;54.756;9.400;2023-09-07T11:56:04;34.30;54.30
9057;DHT22;4563;54.756;9.400;2023-09-07T11:58:31;34.40;52.70
9057;DHT22;4563;54.756;9.400;2023-09-07T12:00:57;34.50;52.20
9057;DHT22;4563;54.756;9.400;2023-09-07T12:03:24;34.60;52.10
9057;DHT22;4563;54.756;9.400;2023-09-07T12:05:51;34.70;51.80
9057;DHT22;4563;54.756;9.400;2023-09-07T12:08:18;34.80;51.40
9057;DHT22;4563;54.756;9.400;2023-09-07T12:10:46;34.90;51.40
9057;DHT22;4563;54.756;9.400;2023-09-07T12:13:13;34.90;51.30
9057;DHT22;4563;54.756;9.400;2023-09-07T12:15:40;35.00;50.70
9057;DHT22;4563;54.756;9.400;2023-09-07T12:18:07;35.10;50.50
9057;DHT22;4563;54.756;9.400;2023-09-07T12:20:34;35.10;50.30
9057;DHT22;4563;54.756;9.400;2023-09-07T12:23:01;35.20;50.10
9057;DHT22;4563;54.756;9.400;2023-09-07T12:25:28;35.20;49.90
9057;DHT22;4563;54.756;9.400;2023-09-07T12:27:57;35.30;49.80
9057;DHT22;4563;54.756;9.400;2023-09-07T12:30:23;35.40;50.00
9057;DHT22;4563;54.756;9.400;2023-09-07T12:32:51;35.40;49.70
9057;DHT22;4563;54.756;9.400;2023-09-07T12:35:18;35.50;49.30
9057;DHT22;4563;54.756;9.400;2023-09-07T12:37:45;35.50;49.10
9057;DHT22;4563;54.756;9.400;2023-09-07T12:40:12;35.60;49.30
9057;DHT22;4563;54.756;9.400;2023-09-07T12:42:40;35.60;49.00
9057;DHT22;4563;54.756;9.400;2023-09-07T12:45:09;35.70;49.10
9057;DHT22;4563;54.756;9.400;2023-09-07T12:47:37;35.70;49.20
9057;DHT22;4563;54.756;9.400;2023-09-07T12:50:05;35.70;48.50
9057;DHT22;4563;54.756;9.400;2023-09-07T12:52:32;35.70;48.30
9057;DHT22;4563;54.756;9.400;2023-09-07T12:55:00;35.80;48.30
9057;DHT22;4563;54.756;9.400;2023-09-07T12:57:27;35.80;48.20
9057;DHT22;4563;54.756;9.400;2023-09-07T12:59:54;35.80;48.00
9057;DHT22;4563;54.756;9.400;2023-09-07T13:02:22;35.90;47.90
9057;DHT22;4563;54.756;9.400;2023-09-07T13:04:49;35.90;47.90
9057;DHT22;4563;54.756;9.400;2023-09-07T13:07:16;35.90;47.80
9057;DHT22;4563;54.756;9.400;2023-09-07T13:09:43;35.90;47.40
9057;DHT22;4563;54.756;9.400;2023-09-07T13:12:10;35.90;47.40
9057;DHT22;4563;54.756;9.400;2023-09-07T13:14:37;35.90;47.50
9057;DHT22;4563;54.756;9.400;2023-09-07T13:17:04;35.90;47.40
9057;DHT22;4563;54.756;9.400;2023-09-07T13:19:32;35.90;47.30
9057;DHT22;4563;54.756;9.400;2023-09-07T13:21:59;35.80;47.10
9057;DHT22;4563;54.756;9.400;2023-09-07T13:24:26;35.80;47.20
9057;DHT22;4563;54.756;9.400;2023-09-07T13:26:52;35.70;47.10
9057;DHT22;4563;54.756;9.400;2023-09-07T13:29:19;35.60;46.90
9057;DHT22;4563;54.756;9.400;2023-09-07T13:31:46;35.60;47.00
9057;DHT22;4563;54.756;9.400;2023-09-07T13:34:13;35.50;47.00
9057;DHT22;4563;54.756;9.400;2023-09-07T13:36:41;35.30;47.00
9057;DHT22;4563;54.756;9.400;2023-09-07T13:39:08;35.30;47.00
9057;DHT22;4563;54.756;9.400;2023-09-07T13:41:35;35.20;47.30
9057;DHT22;4563;54.756;9.400;2023-09-07T13:44:02;35.00;47.40
9057;DHT22;4563;54.756;9.400;2023-09-07T13:46:28;34.90;47.60
9057;DHT22;4563;54.756;9.400;2023-09-07T13:48:55;34.80;47.70
9057;DHT22;4563;54.756;9.400;2023-09-07T13:51:22;34.70;47.70
9057;DHT22;4563;54.756;9.400;2023-09-07T13:53:51;34.50;47.70
9057;DHT22;4563;54.756;9.400;2023-09-07T13:56:18;34.40;47.80
9057;DHT22;4563;54.756;9.400;2023-09-07T13:58:45;34.30;47.90
9057;DHT22;4563;54.756;9.400;2023-09-07T14:01:11;34.10;47.90
9057;DHT22;4563;54.756;9.400;2023-09-07T14:03:38;34.00;47.90
9057;DHT22;4563;54.756;9.400;2023-09-07T14:06:05;33.80;48.10
9057;DHT22;4563;54.756;9.400;2023-09-07T14:08:32;33.70;48.30
9057;DHT22;4563;54.756;9.400;2023-09-07T14:11:01;33.50;48.30
9057;DHT22;4563;54.756;9.400;2023-09-07T14:13:28;33.40;48.60
9057;DHT22;4563;54.756;9.400;2023-09-07T14:15:55;33.20;48.60
9057;DHT22;4563;54.756;9.400;2023-09-07T14:18:22;33.10;48.90
9057;DHT22;4563;54.756;9.400;2023-09-07T14:20:49;33.00;49.20
9057;DHT22;4563;54.756;9.400;2023-09-07T14:23:16;32.80;49.30
9057;DHT22;4563;54.756;9.400;2023-09-07T14:25:43;32.70;49.50
9057;DHT22;4563;54.756;9.400;2023-09-07T14:28:12;32.60;49.60
9057;DHT22;4563;54.756;9.400;2023-09-07T14:30:39;32.50;49.90
9057;DHT22;4563;54.756;9.400;2023-09-07T14:33:06;32.30;50.00
9057;DHT22;4563;54.756;9.400;2023-09-07T14:35:33;32.20;50.00
9057;DHT22;4563;54.756;9.400;2023-09-07T14:38:00;32.10;50.10
9057;DHT22;4563;54.756;9.400;2023-09-07T14:40:27;32.00;50.40
9057;DHT22;4563;54.756;9.400;2023-09-07T14:42:54;31.90;50.50
9057;DHT22;4563;54.756;9.400;2023-09-07T14:45:24;31.80;50.70
9057;DHT22;4563;54.756;9.400;2023-09-07T14:47:51;31.70;51.00
9057;DHT22;4563;54.756;9.400;2023-09-07T14:50:18;31.50;50.90
9057;DHT22;4563;54.756;9.400;2023-09-07T14:52:45;31.40;51.10
9057;DHT22;4563;54.756;9.400;2023-09-07T14:55:13;31.30;51.20
9057;DHT22;4563;54.756;9.400;2023-09-07T14:57:40;31.20;51.30
9057;DHT22;4563;54.756;9.400;2023-09-07T15:00:09;31.10;51.40
9057;DHT22;4563;54.756;9.400;2023-09-07T15:02:38;31.00;51.60
9057;DHT22;4563;54.756;9.400;2023-09-07T15:05:05;30.90;51.90
9057;DHT22;4563;54.756;9.400;2023-09-07T15:07:32;30.70;52.00
9057;DHT22;4563;54.756;9.400;2023-09-07T15:10:01;30.70;52.20
9057;DHT22;4563;54.756;9.400;2023-09-07T15:12:33;30.50;52.20
9057;DHT22;4563;54.756;9.400;2023-09-07T15:14:59;30.50;52.40
9057;DHT22;4563;54.756;9.400;2023-09-07T15:17:27;30.40;52.70
9057;DHT22;4563;54.756;9.400;2023-09-07T15:19:56;30.20;52.80
9057;DHT22;4563;54.756;9.400;2023-09-07T15:22:22;30.20;53.00
9057;DHT22;4563;54.756;9.400;2023-09-07T15:24:49;30.00;53.00
9057;DHT22;4563;54.756;9.400;2023-09-07T15:27:16;30.00;53.20
9057;DHT22;4563;54.756;9.400;2023-09-07T15:29:43;29.80;53.20
9057;DHT22;4563;54.756;9.400;2023-09-07T15:32:10;29.80;53.50
9057;DHT22;4563;54.756;9.400;2023-09-07T15:34:37;29.70;53.70
9057;DHT22;4563;54.756;9.400;2023-09-07T15:37:05;29.50;53.90
9057;DHT22;4563;54.756;9.400;2023-09-07T15:39:35;29.50;54.30
9057;DHT22;4563;54.756;9.400;2023-09-07T15:42:05;29.40;54.40
9057;DHT22;4563;54.756;9.400;2023-09-07T15:44:31;29.30;54.60
9057;DHT22;4563;54.756;9.400;2023-09-07T15:46:58;29.20;54.70
9057;DHT22;4563;54.756;9.400;2023-09-07T15:49:25;29.10;54.90
9057;DHT22;4563;54.756;9.400;2023-09-07T15:51:52;29.00;55.10
9057;DHT22;4563;54.756;9.400;2023-09-07T15:54:20;29.00;55.50
9057;DHT22;4563;54.756;9.400;2023-09-07T15:56:46;28.80;55.90
9057;DHT22;4563;54.756;9.400;2023-09-07T15:59:13;28.70;56.00
9057;DHT22;4563;54.756;9.400;2023-09-07T16:01:40;28.70;56.30
9057;DHT22;4563;54.756;9.400;2023-09-07T16:04:07;28.60;56.50